createdAt,value
2023-04-27T00:00:29.043Z,7.47
2023-04-27T00:02:10.361Z,7.49
2023-04-27T00:03:51.806Z,7.43
2023-04-27T00:05:33.319Z,7.27
2023-04-27T00:07:14.704Z,7.21
2023-04-27T00:08:55.986Z,7.22
2023-04-27T00:10:37.289Z,6.85
2023-04-27T00:12:18.579Z,6.28
2023-04-27T00:13:59.866Z,6.51
2023-04-27T00:15:41.182Z,6.76
2023-04-27T00:17:22.493Z,6.75
2023-04-27T00:19:03.797Z,6.47
2023-04-27T00:20:45.094Z,6.52
2023-04-27T00:22:26.393Z,6.75
2023-04-27T00:24:07.661Z,6.53
2023-04-27T00:25:48.975Z,5.99
2023-04-27T00:27:30.240Z,5.44
2023-04-27T00:29:11.703Z,4.70
2023-04-27T00:30:53.180Z,4.47
2023-04-27T00:32:34.481Z,4.46
2023-04-27T00:34:15.875Z,4.71
2023-04-27T00:35:57.154Z,4.91
2023-04-27T00:37:38.474Z,5.10
2023-04-27T00:39:19.828Z,4.79
2023-04-27T00:41:01.102Z,4.41
2023-04-27T00:42:42.348Z,5.00
2023-04-27T00:44:23.624Z,4.95
2023-04-27T00:46:05.051Z,4.95
2023-04-27T00:47:46.384Z,5.29
2023-04-27T00:49:27.774Z,5.16
2023-04-27T00:51:09.159Z,5.09
2023-04-27T00:52:50.471Z,4.68
2023-04-27T00:54:31.771Z,4.69
2023-04-27T00:56:13.095Z,4.57
2023-04-27T00:57:54.380Z,4.88
2023-04-27T00:59:35.748Z,4.93
2023-04-27T01:01:17.114Z,4.98
2023-04-27T01:02:58.569Z,4.90
2023-04-27T01:04:40.027Z,4.59
2023-04-27T01:06:21.340Z,4.73
2023-04-27T01:08:02.671Z,4.93
2023-04-27T01:09:43.934Z,4.80
2023-04-27T01:11:25.299Z,4.70
2023-04-27T01:13:06.618Z,4.82
2023-04-27T01:14:47.944Z,5.14
2023-04-27T01:16:29.283Z,4.72
2023-04-27T01:18:10.643Z,5.08
2023-04-27T01:19:51.992Z,5.43
2023-04-27T01:21:33.364Z,5.62
2023-04-27T01:23:16.764Z,5.42
2023-04-27T01:24:58.713Z,5.24
2023-04-27T01:26:40.046Z,5.34
2023-04-27T01:28:21.380Z,5.41
2023-04-27T01:30:02.710Z,5.23
2023-04-27T01:31:44.058Z,5.06
2023-04-27T01:33:25.467Z,5.07
2023-04-27T01:35:06.740Z,5.30
2023-04-27T01:36:48.027Z,5.52
2023-04-27T01:38:29.350Z,5.50
2023-04-27T01:40:10.634Z,5.25
2023-04-27T01:41:51.947Z,4.61
2023-04-27T01:43:33.239Z,4.40
2023-04-27T01:45:14.542Z,4.14
2023-04-27T01:46:55.877Z,4.26
2023-04-27T01:48:37.229Z,4.56
2023-04-27T01:50:18.505Z,4.89
2023-04-27T01:51:59.817Z,5.01
2023-04-27T01:53:41.126Z,4.63
2023-04-27T01:55:22.453Z,5.01
2023-04-27T01:57:03.729Z,5.26
2023-04-27T01:58:45.126Z,5.54
2023-04-27T02:00:26.443Z,5.13
2023-04-27T02:02:07.746Z,4.88
2023-04-27T02:03:49.246Z,4.53
2023-04-27T02:05:30.663Z,4.67
2023-04-27T02:07:11.985Z,4.67
2023-04-27T02:08:53.311Z,4.11
2023-04-27T02:10:34.644Z,4.22
2023-04-27T02:12:15.933Z,4.48
2023-04-27T02:13:57.270Z,4.84
2023-04-27T02:15:38.601Z,4.94
2023-04-27T02:17:19.898Z,4.52
2023-04-27T02:19:01.247Z,4.25
2023-04-27T02:20:42.535Z,4.07
2023-04-27T02:22:23.830Z,4.17
2023-04-27T02:24:05.174Z,4.45
2023-04-27T02:25:46.494Z,4.82
2023-04-27T02:27:27.809Z,5.10
2023-04-27T02:29:09.578Z,4.68
2023-04-27T02:30:51.390Z,4.55
2023-04-27T02:32:32.719Z,4.88
2023-04-27T02:34:14.097Z,4.59
2023-04-27T02:35:55.395Z,4.30
2023-04-27T02:37:36.689Z,4.35
2023-04-27T02:39:17.998Z,4.00
2023-04-27T02:40:59.344Z,3.91
2023-04-27T02:42:40.658Z,4.10
2023-04-27T02:44:21.985Z,3.88
2023-04-27T02:46:03.375Z,3.79
2023-04-27T02:47:44.719Z,4.21
2023-04-27T02:49:26.056Z,4.20
2023-04-27T02:51:07.402Z,4.30
2023-04-27T02:52:48.720Z,4.01
2023-04-27T02:54:30.379Z,4.39
2023-04-27T02:56:11.698Z,4.49
2023-04-27T02:57:53.017Z,4.23
2023-04-27T02:59:34.310Z,4.06
2023-04-27T03:01:15.775Z,4.37
2023-04-27T03:02:57.205Z,3.89
2023-04-27T03:04:38.820Z,4.15
2023-04-27T03:06:20.299Z,4.47
2023-04-27T03:08:01.626Z,4.35
2023-04-27T03:09:42.941Z,4.35
2023-04-27T03:11:24.327Z,4.21
2023-04-27T03:13:05.619Z,3.59
2023-04-27T03:14:46.933Z,3.34
2023-04-27T03:16:28.334Z,3.64
2023-04-27T03:18:09.736Z,4.00
2023-04-27T03:19:51.110Z,3.86
2023-04-27T03:21:32.421Z,3.63
2023-04-27T03:23:13.708Z,3.36
2023-04-27T03:24:54.999Z,3.63
2023-04-27T03:26:36.361Z,3.19
2023-04-27T03:28:17.655Z,3.63
2023-04-27T03:29:58.984Z,3.26
2023-04-27T03:31:40.296Z,2.49
2023-04-27T03:33:21.598Z,2.92
2023-04-27T03:35:02.890Z,2.91
2023-04-27T03:36:44.184Z,2.96
2023-04-27T03:38:25.496Z,2.84
2023-04-27T03:40:06.811Z,2.95
2023-04-27T03:41:48.148Z,3.51
2023-04-27T03:43:29.469Z,3.82
2023-04-27T03:45:10.807Z,3.72
2023-04-27T03:46:52.115Z,3.91
2023-04-27T03:48:33.501Z,3.49
2023-04-27T03:50:14.814Z,3.48
2023-04-27T03:51:56.122Z,3.56
2023-04-27T03:53:37.449Z,3.57
2023-04-27T03:55:18.887Z,3.72
2023-04-27T03:57:00.204Z,3.39
2023-04-27T03:58:41.472Z,3.68
2023-04-27T04:00:22.790Z,3.85
2023-04-27T04:02:04.183Z,3.89
2023-04-27T04:03:45.638Z,3.83
2023-04-27T04:05:27.085Z,3.77
2023-04-27T04:07:08.396Z,3.74
2023-04-27T04:08:49.667Z,3.58
2023-04-27T04:10:30.989Z,3.24
2023-04-27T04:12:12.314Z,3.51
2023-04-27T04:13:53.598Z,3.37
2023-04-27T04:15:34.988Z,3.14
2023-04-27T04:17:16.324Z,3.07
2023-04-27T04:18:57.640Z,3.09
2023-04-27T04:20:39.088Z,2.85
2023-04-27T04:22:20.369Z,3.16
2023-04-27T04:24:01.660Z,3.42
2023-04-27T04:25:42.981Z,3.66
2023-04-27T04:27:24.271Z,3.36
2023-04-27T04:29:05.606Z,3.64
2023-04-27T04:30:46.964Z,3.45
2023-04-27T04:32:28.281Z,3.23
2023-04-27T04:34:09.634Z,3.26
2023-04-27T04:35:50.941Z,3.12
2023-04-27T04:37:32.195Z,2.79
2023-04-27T04:39:13.710Z,2.85
2023-04-27T04:40:55.263Z,3.32
2023-04-27T04:42:36.545Z,2.90
2023-04-27T04:44:17.840Z,3.06
2023-04-27T04:45:59.158Z,3.02
2023-04-27T04:47:40.464Z,3.32
2023-04-27T04:49:21.830Z,3.37
2023-04-27T04:51:03.100Z,3.54
2023-04-27T04:52:44.358Z,3.18
2023-04-27T04:54:25.687Z,3.43
2023-04-27T04:56:06.988Z,3.20
2023-04-27T04:57:48.298Z,3.45
2023-04-27T04:59:31.500Z,3.35
2023-04-27T05:01:13.417Z,3.04
2023-04-27T05:02:54.897Z,3.39
2023-04-27T05:04:36.383Z,3.32
2023-04-27T05:06:17.727Z,3.19
2023-04-27T05:07:58.991Z,3.37
2023-04-27T05:09:40.301Z,3.39
2023-04-27T05:11:21.578Z,3.49
2023-04-27T05:13:03.848Z,3.41
2023-04-27T05:14:46.587Z,3.30
2023-04-27T05:16:27.958Z,3.08
2023-04-27T05:18:09.407Z,3.06
2023-04-27T05:19:50.779Z,2.95
2023-04-27T05:21:32.041Z,3.19
2023-04-27T05:23:13.343Z,3.26
2023-04-27T05:24:54.647Z,3.32
2023-04-27T05:26:35.931Z,3.69
2023-04-27T05:28:17.205Z,3.66
2023-04-27T05:29:58.491Z,3.81
2023-04-27T05:31:39.843Z,3.38
2023-04-27T05:33:21.160Z,3.53
2023-04-27T05:35:02.455Z,3.30
2023-04-27T05:36:43.734Z,3.36
2023-04-27T05:38:25.080Z,3.01
2023-04-27T05:40:06.466Z,2.88
2023-04-27T05:41:47.854Z,2.77
2023-04-27T05:43:29.146Z,2.88
2023-04-27T05:45:10.429Z,3.15
2023-04-27T05:46:51.731Z,3.26
2023-04-27T05:48:33.066Z,3.41
2023-04-27T05:50:14.445Z,3.72
2023-04-27T05:51:55.737Z,3.88
2023-04-27T05:53:37.010Z,3.88
2023-04-27T05:55:18.324Z,4.16
2023-04-27T05:56:59.584Z,4.46
2023-04-27T05:58:40.873Z,4.08
2023-04-27T06:00:22.188Z,3.99
2023-04-27T06:02:03.487Z,3.62
2023-04-27T06:03:45.126Z,3.79
2023-04-27T06:05:26.786Z,4.04
2023-04-27T06:07:08.118Z,4.33
2023-04-27T06:08:49.392Z,4.08
2023-04-27T06:10:30.711Z,4.01
2023-04-27T06:12:11.994Z,4.19
2023-04-27T06:13:53.265Z,4.55
2023-04-27T06:15:34.670Z,4.56
2023-04-27T06:17:16.135Z,4.65
2023-04-27T06:18:57.408Z,4.32
2023-04-27T06:20:38.728Z,4.50
2023-04-27T06:22:20.023Z,4.55
2023-04-27T06:24:01.323Z,4.49
2023-04-27T06:25:42.633Z,4.42
2023-04-27T06:27:23.955Z,4.29
2023-04-27T06:29:05.256Z,4.19
2023-04-27T06:30:46.595Z,4.21
2023-04-27T06:32:27.904Z,4.45
2023-04-27T06:34:09.187Z,4.64
2023-04-27T06:35:50.472Z,4.83
2023-04-27T06:37:31.729Z,4.61
2023-04-27T06:39:13.191Z,4.58
2023-04-27T06:40:54.639Z,4.72
2023-04-27T06:42:36.318Z,4.45
2023-04-27T06:44:17.734Z,4.54
2023-04-27T06:45:59.129Z,4.87
2023-04-27T06:47:40.457Z,4.84
2023-04-27T06:49:21.750Z,4.86
2023-04-27T06:51:03.078Z,4.78
2023-04-27T06:52:44.361Z,4.91
2023-04-27T06:54:25.654Z,4.73
2023-04-27T06:56:07.050Z,4.98
2023-04-27T06:57:48.359Z,5.09
2023-04-27T06:59:29.633Z,5.35
2023-04-27T07:01:11.013Z,5.43
2023-04-27T07:02:52.481Z,5.26
2023-04-27T07:04:33.886Z,4.39
2023-04-27T07:06:15.214Z,4.40
2023-04-27T07:07:56.494Z,4.67
2023-04-27T07:09:37.788Z,5.25
2023-04-27T07:11:19.153Z,4.85
2023-04-27T07:13:00.434Z,4.72
2023-04-27T07:14:41.717Z,4.34
2023-04-27T07:16:23.047Z,4.28
2023-04-27T07:18:04.408Z,3.96
2023-04-27T07:19:45.716Z,4.69
2023-04-27T07:21:27.011Z,4.98
2023-04-27T07:23:08.319Z,5.30
2023-04-27T07:24:49.626Z,5.22
2023-04-27T07:26:30.904Z,5.54
2023-04-27T07:28:12.239Z,5.95
2023-04-27T07:29:53.525Z,6.06
2023-04-27T07:31:34.886Z,5.72
2023-04-27T07:33:16.248Z,5.99
2023-04-27T07:34:57.521Z,6.50
2023-04-27T07:36:38.836Z,7.15
2023-04-27T07:38:20.154Z,7.24
2023-04-27T07:40:01.439Z,7.95
2023-04-27T07:41:42.742Z,7.84
2023-04-27T07:43:24.076Z,7.66
2023-04-27T07:45:05.375Z,7.53
2023-04-27T07:46:46.708Z,7.81
2023-04-27T07:48:28.067Z,7.60
2023-04-27T07:50:09.372Z,7.97
2023-04-27T07:51:50.657Z,8.34
2023-04-27T07:53:31.934Z,8.75
2023-04-27T07:55:13.211Z,8.93
2023-04-27T07:56:54.539Z,9.18
2023-04-27T07:58:35.877Z,9.33
2023-04-27T08:00:17.141Z,9.77
2023-04-27T08:02:15.054Z,9.57
2023-04-27T08:03:59.735Z,9.29
2023-04-27T08:05:41.426Z,8.35
2023-04-27T08:07:23.196Z,8.90
2023-04-27T08:09:04.612Z,8.77
2023-04-27T08:10:45.867Z,8.67
2023-04-27T08:12:27.153Z,8.80
2023-04-27T08:14:08.434Z,8.02
2023-04-27T08:15:49.739Z,8.03
2023-04-27T08:17:31.141Z,8.00
2023-04-27T08:19:12.900Z,7.77
2023-04-27T08:20:54.476Z,7.93
2023-04-27T08:22:35.789Z,7.90
2023-04-27T08:24:17.091Z,8.46
2023-04-27T08:25:58.390Z,8.62
2023-04-27T08:27:39.705Z,9.18
2023-04-27T08:29:27.934Z,9.39
2023-04-27T08:31:10.299Z,9.24
2023-04-27T08:32:51.650Z,9.63
2023-04-27T08:34:32.987Z,9.17
2023-04-27T08:36:14.293Z,8.97
2023-04-27T08:37:55.577Z,8.84
2023-04-27T08:39:36.890Z,8.68
2023-04-27T08:41:21.515Z,9.59
2023-04-27T08:43:03.621Z,9.65
2023-04-27T08:44:44.984Z,9.40
2023-04-27T08:46:26.334Z,9.73
2023-04-27T08:48:07.748Z,9.88
2023-04-27T08:49:49.097Z,10.20
2023-04-27T08:51:30.417Z,10.05
2023-04-27T08:53:11.689Z,10.37
2023-04-27T08:54:52.977Z,10.12
2023-04-27T08:56:34.310Z,10.08
2023-04-27T08:58:15.607Z,9.99
2023-04-27T08:59:56.939Z,10.35
2023-04-27T09:01:38.291Z,10.63
2023-04-27T09:03:19.712Z,10.89
2023-04-27T09:05:01.365Z,11.03
2023-04-27T09:06:42.838Z,10.93
2023-04-27T09:08:24.104Z,11.01
2023-04-27T09:10:05.393Z,11.42
2023-04-27T09:11:46.740Z,11.02
2023-04-27T09:13:28.001Z,11.44
2023-04-27T09:15:09.287Z,11.52
2023-04-27T09:16:50.819Z,11.25
2023-04-27T09:18:32.236Z,11.29
2023-04-27T09:20:13.742Z,11.96
2023-04-27T09:21:55.173Z,12.00
2023-04-27T09:23:36.497Z,12.19
2023-04-27T09:25:17.803Z,12.86
2023-04-27T09:27:00.653Z,12.76
2023-04-27T09:28:42.287Z,12.62
2023-04-27T09:30:23.609Z,12.08
2023-04-27T09:32:04.987Z,12.28
2023-04-27T09:33:46.358Z,12.02
2023-04-27T09:35:27.904Z,12.19
2023-04-27T09:37:09.214Z,12.34
2023-04-27T09:38:50.669Z,12.14
2023-04-27T09:40:32.038Z,12.42
2023-04-27T09:42:13.468Z,12.21
2023-04-27T09:43:57.017Z,12.67
2023-04-27T09:45:39.090Z,12.35
2023-04-27T09:47:20.468Z,12.44
2023-04-27T09:49:01.775Z,12.51
2023-04-27T09:50:43.148Z,12.70
2023-04-27T09:52:24.449Z,13.00
2023-04-27T09:54:05.724Z,13.26
2023-04-27T09:55:47.064Z,13.33
2023-04-27T09:57:28.385Z,13.72
2023-04-27T09:59:09.704Z,13.78
2023-04-27T10:00:51.034Z,13.99
2023-04-27T10:02:35.097Z,13.58
2023-04-27T10:04:24.416Z,13.51
2023-04-27T10:06:05.785Z,13.69
2023-04-27T10:07:47.054Z,12.52
2023-04-27T10:09:28.393Z,13.12
2023-04-27T10:11:09.702Z,12.97
2023-04-27T10:12:50.992Z,12.85
2023-04-27T10:14:32.318Z,13.19
2023-04-27T10:16:13.623Z,12.35
2023-04-27T10:17:55.008Z,12.68
2023-04-27T10:19:36.389Z,13.70
2023-04-27T10:21:17.690Z,13.46
2023-04-27T10:22:58.994Z,12.69
2023-04-27T10:24:40.351Z,13.27
2023-04-27T10:26:21.643Z,13.17
2023-04-27T10:28:02.943Z,13.03
2023-04-27T10:29:44.331Z,13.08
2023-04-27T10:31:25.673Z,12.99
2023-04-27T10:33:07.087Z,13.71
2023-04-27T10:34:48.474Z,14.02
2023-04-27T10:36:29.797Z,14.36
2023-04-27T10:38:11.121Z,14.45
2023-04-27T10:39:54.728Z,14.68
2023-04-27T10:41:36.282Z,14.47
2023-04-27T10:43:17.640Z,13.14
2023-04-27T10:44:59.134Z,14.17
2023-04-27T10:46:40.800Z,14.62
2023-04-27T10:48:22.166Z,14.71
2023-04-27T10:50:03.514Z,14.95
2023-04-27T10:51:44.810Z,13.89
2023-04-27T10:53:26.079Z,14.38
2023-04-27T10:55:07.383Z,14.91
2023-04-27T10:56:48.676Z,15.27
2023-04-27T10:58:44.888Z,14.68
2023-04-27T11:00:29.959Z,14.08
2023-04-27T11:02:11.323Z,13.58
2023-04-27T11:03:52.661Z,13.53
2023-04-27T11:05:34.026Z,13.38
2023-04-27T11:07:15.286Z,12.94
2023-04-27T11:08:56.600Z,11.80
2023-04-27T11:10:38.000Z,11.76
2023-04-27T11:12:19.299Z,11.88
2023-04-27T11:14:00.579Z,11.33
2023-04-27T11:15:42.083Z,11.17
2023-04-27T11:17:23.420Z,11.08
2023-04-27T11:19:04.761Z,10.99
2023-04-27T11:20:46.072Z,11.16
2023-04-27T11:22:27.532Z,11.02
2023-04-27T11:24:09.105Z,10.98
2023-04-27T11:25:50.440Z,11.34
2023-04-27T11:27:31.777Z,11.54
2023-04-27T11:29:13.535Z,11.46
2023-04-27T11:30:55.326Z,11.99
2023-04-27T11:32:36.918Z,12.35
2023-04-27T11:34:19.581Z,11.81
2023-04-27T11:36:00.982Z,11.73
2023-04-27T11:37:42.441Z,12.13
2023-04-27T11:39:24.086Z,12.05
2023-04-27T11:41:05.456Z,11.86
2023-04-27T11:42:46.744Z,12.15
2023-04-27T11:44:28.040Z,11.85
2023-04-27T11:46:09.323Z,12.26
2023-04-27T11:47:50.707Z,12.07
2023-04-27T11:49:32.067Z,12.06
2023-04-27T11:51:14.035Z,12.49
2023-04-27T11:52:55.872Z,12.70
2023-04-27T11:54:37.527Z,12.69
2023-04-27T11:56:18.870Z,12.50
2023-04-27T11:58:00.161Z,12.39
2023-04-27T11:59:41.485Z,12.36
2023-04-27T12:01:34.808Z,12.19
2023-04-27T12:03:19.621Z,12.34
2023-04-27T12:05:01.564Z,12.66
2023-04-27T12:06:43.081Z,12.65
2023-04-27T12:08:24.377Z,12.44
2023-04-27T12:10:05.686Z,12.40
2023-04-27T12:11:46.977Z,11.88
2023-04-27T12:13:28.278Z,12.52
2023-04-27T12:15:09.590Z,12.77
2023-04-27T12:16:51.608Z,13.00
2023-04-27T12:18:33.172Z,12.61
2023-04-27T12:20:14.646Z,12.77
2023-04-27T12:21:56.000Z,12.52
2023-04-27T12:23:37.299Z,12.65
2023-04-27T12:25:18.658Z,12.53
2023-04-27T12:26:59.965Z,12.07
2023-04-27T12:28:41.243Z,12.07
2023-04-27T12:30:22.531Z,11.65
2023-04-27T12:32:03.876Z,11.83
2023-04-27T12:33:45.960Z,11.92
2023-04-27T12:35:27.476Z,12.31
2023-04-27T12:37:08.775Z,12.15
2023-04-27T12:38:50.065Z,12.11
2023-04-27T12:40:31.371Z,12.03
2023-04-27T12:42:13.079Z,11.82
2023-04-27T12:43:54.817Z,11.48
2023-04-27T12:45:36.252Z,11.98
2023-04-27T12:47:34.609Z,12.31
2023-04-27T12:49:18.765Z,12.77
2023-04-27T12:51:00.101Z,12.75
2023-04-27T12:52:41.481Z,12.43
2023-04-27T12:54:22.762Z,12.49
2023-04-27T12:56:04.064Z,12.32
2023-04-27T12:57:46.032Z,12.55
2023-04-27T12:59:27.556Z,12.55
2023-04-27T13:01:08.872Z,12.40
2023-04-27T13:02:50.333Z,12.40
2023-04-27T13:04:31.858Z,12.25
2023-04-27T13:06:13.353Z,12.08
2023-04-27T13:07:54.999Z,12.10
2023-04-27T13:09:36.436Z,12.14
2023-04-27T13:11:17.818Z,11.88
2023-04-27T13:12:59.180Z,11.96
2023-04-27T13:14:40.498Z,12.49
2023-04-27T13:16:21.882Z,12.38
2023-04-27T13:18:03.557Z,12.27
2023-04-27T13:19:44.966Z,12.58
2023-04-27T13:21:26.273Z,12.22
2023-04-27T13:23:07.564Z,12.08
2023-04-27T13:24:48.868Z,12.08
2023-04-27T13:26:30.162Z,12.03
2023-04-27T13:28:11.481Z,12.40
2023-04-27T13:29:52.765Z,12.41
2023-04-27T13:31:34.087Z,12.45
2023-04-27T13:33:22.710Z,12.12
2023-04-27T13:35:04.761Z,12.49
2023-04-27T13:36:47.774Z,12.41
2023-04-27T13:38:30.435Z,12.40
2023-04-27T13:40:11.798Z,12.75
2023-04-27T13:41:53.107Z,12.78
2023-04-27T13:43:34.402Z,12.91
2023-04-27T13:45:15.684Z,12.59
2023-04-27T13:46:56.982Z,12.71
2023-04-27T13:48:38.283Z,13.09
2023-04-27T13:50:19.718Z,13.03
2023-04-27T13:52:01.071Z,13.21
2023-04-27T13:53:42.373Z,13.13
2023-04-27T13:55:23.663Z,12.58
2023-04-27T13:57:04.973Z,13.11
2023-04-27T13:58:46.269Z,13.55
2023-04-27T14:00:27.535Z,13.72
2023-04-27T14:02:08.966Z,13.60
2023-04-27T14:03:50.440Z,13.02
2023-04-27T14:05:31.827Z,12.83
2023-04-27T14:07:13.132Z,12.30
2023-04-27T14:08:55.646Z,12.82
2023-04-27T14:10:37.242Z,12.53
2023-04-27T14:12:19.183Z,12.36
2023-04-27T14:14:00.664Z,12.51
2023-04-27T14:15:42.050Z,12.31
2023-04-27T14:17:23.383Z,12.40
2023-04-27T14:19:04.674Z,12.90
2023-04-27T14:20:45.973Z,12.64
2023-04-27T14:22:27.330Z,13.12
2023-04-27T14:24:08.620Z,12.75
2023-04-27T14:25:50.617Z,12.88
2023-04-27T14:27:32.389Z,13.23
2023-04-27T14:29:14.097Z,12.87
2023-04-27T14:30:55.758Z,12.88
2023-04-27T14:32:37.224Z,12.80
2023-04-27T14:34:20.937Z,13.12
2023-04-27T14:36:02.928Z,13.05
2023-04-27T14:37:44.299Z,12.56
2023-04-27T14:39:25.606Z,12.63
2023-04-27T14:41:07.461Z,12.63
2023-04-27T14:42:49.044Z,12.59
2023-04-27T14:44:30.515Z,12.22
2023-04-27T14:46:20.298Z,12.22
2023-04-27T14:48:02.497Z,12.18
2023-04-27T14:49:43.848Z,12.24
2023-04-27T14:51:25.203Z,12.36
2023-04-27T14:53:06.556Z,12.35
2023-04-27T14:54:47.998Z,12.33
2023-04-27T14:56:29.259Z,12.88
2023-04-27T14:58:10.594Z,13.41
2023-04-27T14:59:51.920Z,13.88
2023-04-27T15:01:33.215Z,14.45
2023-04-27T15:03:14.788Z,14.71
2023-04-27T15:04:56.210Z,14.88
2023-04-27T15:06:37.509Z,15.29
2023-04-27T15:08:18.821Z,15.59
2023-04-27T15:10:00.194Z,15.38
2023-04-27T15:11:41.542Z,15.42
2023-04-27T15:13:22.884Z,15.13
2023-04-27T15:15:04.211Z,15.26
2023-04-27T15:16:45.500Z,15.16
2023-04-27T15:18:26.826Z,15.54
2023-04-27T15:20:08.138Z,15.59
2023-04-27T15:21:49.715Z,15.25
2023-04-27T15:23:31.301Z,15.34
2023-04-27T15:25:12.623Z,14.87
2023-04-27T15:26:53.903Z,15.38
2023-04-27T15:28:35.200Z,15.02
2023-04-27T15:30:16.484Z,15.27
2023-04-27T15:31:57.775Z,15.50
2023-04-27T15:33:39.094Z,15.20
2023-04-27T15:35:20.369Z,15.09
2023-04-27T15:37:02.347Z,14.69
2023-04-27T15:38:43.943Z,14.53
2023-04-27T15:40:25.248Z,14.83
2023-04-27T15:42:06.524Z,14.72
2023-04-27T15:43:47.883Z,14.83
2023-04-27T15:45:29.168Z,14.94
2023-04-27T15:47:10.494Z,14.56
2023-04-27T15:48:51.843Z,14.41
2023-04-27T15:50:33.147Z,14.05
2023-04-27T15:52:15.646Z,13.81
2023-04-27T15:53:56.926Z,13.85
2023-04-27T15:55:38.891Z,13.83
2023-04-27T15:57:20.490Z,13.97
2023-04-27T15:59:01.850Z,13.66
2023-04-27T16:00:43.336Z,13.78
2023-04-27T16:02:24.987Z,13.65
2023-04-27T16:04:06.520Z,13.66
2023-04-27T16:05:47.945Z,13.78
2023-04-27T16:07:29.280Z,13.84
2023-04-27T16:09:11.368Z,13.90
2023-04-27T16:10:53.090Z,13.82
2023-04-27T16:12:34.562Z,14.15
2023-04-27T16:14:15.963Z,14.12
2023-04-27T16:15:57.380Z,14.25
2023-04-27T16:17:38.741Z,13.98
2023-04-27T16:19:20.103Z,14.15
2023-04-27T16:21:01.405Z,14.42
2023-04-27T16:22:42.701Z,14.52
2023-04-27T16:24:23.976Z,14.41
2023-04-27T16:26:05.318Z,14.26
2023-04-27T16:27:46.605Z,14.37
2023-04-27T16:29:27.883Z,14.44
2023-04-27T16:31:09.200Z,14.46
2023-04-27T16:32:50.482Z,13.85
2023-04-27T16:34:31.953Z,13.21
2023-04-27T16:36:13.278Z,13.31
2023-04-27T16:37:54.568Z,13.12
2023-04-27T16:39:35.866Z,12.78
2023-04-27T16:41:17.144Z,12.95
2023-04-27T16:42:58.412Z,12.64
2023-04-27T16:44:39.704Z,12.71
2023-04-27T16:46:21.009Z,12.70
2023-04-27T16:48:02.397Z,12.49
2023-04-27T16:49:43.802Z,12.63
2023-04-27T16:51:25.185Z,12.44
2023-04-27T16:53:06.513Z,12.33
2023-04-27T16:54:47.868Z,12.01
2023-04-27T16:56:29.498Z,11.90
2023-04-27T16:58:10.909Z,11.94
2023-04-27T16:59:52.203Z,11.73
2023-04-27T17:01:33.515Z,11.52
2023-04-27T17:03:15.009Z,11.84
2023-04-27T17:04:56.501Z,11.91
2023-04-27T17:06:37.900Z,11.54
2023-04-27T17:08:19.200Z,11.39
2023-04-27T17:10:00.621Z,10.86
2023-04-27T17:11:41.953Z,10.94
2023-04-27T17:13:23.235Z,10.70
2023-04-27T17:15:04.544Z,10.68
2023-04-27T17:16:45.815Z,10.54
2023-04-27T17:18:27.127Z,10.41
2023-04-27T17:20:08.456Z,10.65
2023-04-27T17:21:49.736Z,10.61
2023-04-27T17:23:31.039Z,10.35
2023-04-27T17:25:12.347Z,10.23
2023-04-27T17:26:53.637Z,10.51
2023-04-27T17:28:34.980Z,10.37
2023-04-27T17:30:16.270Z,10.04
2023-04-27T17:31:57.544Z,9.90
2023-04-27T17:33:38.840Z,9.90
2023-04-27T17:35:20.147Z,10.10
2023-04-27T17:37:01.481Z,10.17
2023-04-27T17:38:42.786Z,10.20
2023-04-27T17:40:24.055Z,10.21
2023-04-27T17:42:05.381Z,9.98
2023-04-27T17:43:46.712Z,10.05
2023-04-27T17:45:28.005Z,9.92
2023-04-27T17:47:09.282Z,9.73
2023-04-27T17:48:50.614Z,9.94
2023-04-27T17:50:31.892Z,9.89
2023-04-27T17:52:13.173Z,10.00
2023-04-27T17:53:54.454Z,10.14
2023-04-27T17:55:35.759Z,10.57
2023-04-27T17:57:17.055Z,10.80
2023-04-27T17:58:58.352Z,10.74
2023-04-27T18:00:39.643Z,11.00
2023-04-27T18:02:20.994Z,11.14
2023-04-27T18:04:04.637Z,11.24
2023-04-27T18:05:46.210Z,10.99
2023-04-27T18:07:27.568Z,10.69
2023-04-27T18:09:08.872Z,10.73
2023-04-27T18:10:50.133Z,10.22
2023-04-27T18:12:31.466Z,9.70
2023-04-27T18:14:12.772Z,9.78
2023-04-27T18:15:54.150Z,9.83
2023-04-27T18:17:35.532Z,10.02
2023-04-27T18:19:17.122Z,9.94
2023-04-27T18:20:58.716Z,9.78
2023-04-27T18:22:40.297Z,9.77
2023-04-27T18:24:21.690Z,9.86
2023-04-27T18:26:02.969Z,9.53
2023-04-27T18:27:44.256Z,9.17
2023-04-27T18:29:25.590Z,8.88
2023-04-27T18:31:06.937Z,8.91
2023-04-27T18:32:48.314Z,9.05
2023-04-27T18:34:29.954Z,8.74
2023-04-27T18:36:11.247Z,8.70
2023-04-27T18:37:52.581Z,8.53
2023-04-27T18:39:33.884Z,8.43
2023-04-27T18:41:15.195Z,8.58
2023-04-27T18:42:56.496Z,8.76
2023-04-27T18:44:37.766Z,8.66
2023-04-27T18:46:19.110Z,8.90
2023-04-27T18:48:00.487Z,8.89
2023-04-27T18:49:41.839Z,8.47
2023-04-27T18:51:23.132Z,8.55
2023-04-27T18:53:04.514Z,8.30
2023-04-27T18:54:45.807Z,8.22
2023-04-27T18:56:27.090Z,8.76
2023-04-27T18:58:09.344Z,8.61
2023-04-27T18:59:50.629Z,8.80
2023-04-27T19:01:31.994Z,8.89
2023-04-27T19:03:13.509Z,8.62
2023-04-27T19:05:11.119Z,8.53
2023-04-27T19:06:54.589Z,8.78
2023-04-27T19:08:35.886Z,9.10
2023-04-27T19:10:17.194Z,9.00
2023-04-27T19:12:02.914Z,8.72
2023-04-27T19:13:44.964Z,8.70
2023-04-27T19:15:26.267Z,8.71
2023-04-27T19:17:07.915Z,9.11
2023-04-27T19:18:49.620Z,9.35
2023-04-27T19:20:30.979Z,9.51
2023-04-27T19:22:12.291Z,9.13
2023-04-27T19:23:53.603Z,9.13
2023-04-27T19:25:34.905Z,8.54
2023-04-27T19:27:16.313Z,8.15
2023-04-27T19:28:57.677Z,7.56
2023-04-27T19:30:39.131Z,6.99
2023-04-27T19:32:20.498Z,6.91
2023-04-27T19:34:04.332Z,7.23
2023-04-27T19:35:45.804Z,7.14
2023-04-27T19:37:27.170Z,6.90
2023-04-27T19:39:08.448Z,6.58
2023-04-27T19:40:49.714Z,6.45
2023-04-27T19:42:31.040Z,6.73
2023-04-27T19:44:12.588Z,7.14
2023-04-27T19:45:54.145Z,7.69
2023-04-27T19:47:35.488Z,7.94
2023-04-27T19:49:16.829Z,7.92
2023-04-27T19:50:58.117Z,7.66
2023-04-27T19:52:39.421Z,7.53
2023-04-27T19:54:20.712Z,7.93
2023-04-27T19:56:02.004Z,8.07
2023-04-27T19:57:43.379Z,8.17
2023-04-27T19:59:24.670Z,8.53
2023-04-27T20:01:05.972Z,8.66
2023-04-27T20:02:47.416Z,8.79
2023-04-27T20:04:29.009Z,8.99
2023-04-27T20:06:10.567Z,8.83
2023-04-27T20:07:52.058Z,8.74
2023-04-27T20:09:33.385Z,8.18
2023-04-27T20:11:14.674Z,7.69
2023-04-27T20:12:57.092Z,7.49
2023-04-27T20:14:38.775Z,7.55
2023-04-27T20:16:20.236Z,7.63
2023-04-27T20:18:01.570Z,7.90
2023-04-27T20:19:42.886Z,8.36
2023-04-27T20:21:24.186Z,8.38
2023-04-27T20:23:05.499Z,8.10
2023-04-27T20:24:46.775Z,7.96
2023-04-27T20:26:28.070Z,8.00
2023-04-27T20:28:09.421Z,7.60
2023-04-27T20:29:50.948Z,7.20
2023-04-27T20:31:32.464Z,7.10
2023-04-27T20:33:13.957Z,7.32
2023-04-27T20:34:55.325Z,7.09
2023-04-27T20:36:36.625Z,7.14
2023-04-27T20:38:17.945Z,6.84
2023-04-27T20:39:59.255Z,6.46
2023-04-27T20:41:40.595Z,6.55
2023-04-27T20:43:21.888Z,7.29
2023-04-27T20:45:03.156Z,7.64
2023-04-27T20:46:44.437Z,7.94
2023-04-27T20:48:25.717Z,8.31
2023-04-27T20:50:06.995Z,8.31
2023-04-27T20:51:48.271Z,8.26
2023-04-27T20:53:29.566Z,7.66
2023-04-27T20:55:10.862Z,7.64
2023-04-27T20:56:52.163Z,7.53
2023-04-27T20:58:33.528Z,7.80
2023-04-27T21:00:14.807Z,8.05
2023-04-27T21:01:56.097Z,8.23
2023-04-27T21:03:37.599Z,7.94
2023-04-27T21:05:19.092Z,7.30
2023-04-27T21:07:00.361Z,7.45
2023-04-27T21:08:41.657Z,7.82
2023-04-27T21:10:22.957Z,8.17
2023-04-27T21:12:04.237Z,8.09
2023-04-27T21:13:45.552Z,7.46
2023-04-27T21:15:26.852Z,7.50
2023-04-27T21:17:08.147Z,7.81
2023-04-27T21:18:49.470Z,8.08
2023-04-27T21:20:30.834Z,8.08
2023-04-27T21:22:12.191Z,8.40
2023-04-27T21:24:04.200Z,8.25
2023-04-27T21:25:48.294Z,7.24
2023-04-27T21:27:29.597Z,6.90
2023-04-27T21:29:10.880Z,6.94
2023-04-27T21:30:52.260Z,7.14
2023-04-27T21:32:33.780Z,7.45
2023-04-27T21:34:15.487Z,7.62
2023-04-27T21:35:56.885Z,7.71
2023-04-27T21:37:38.201Z,7.21
2023-04-27T21:39:19.562Z,6.75
2023-04-27T21:41:00.888Z,6.93
2023-04-27T21:42:42.245Z,7.15
2023-04-27T21:44:23.573Z,7.02
2023-04-27T21:46:04.995Z,6.98
2023-04-27T21:47:46.392Z,6.78
2023-04-27T21:49:27.811Z,6.86
2023-04-27T21:51:09.086Z,6.82
2023-04-27T21:52:50.350Z,7.16
2023-04-27T21:54:31.756Z,7.71
2023-04-27T21:56:13.102Z,8.10
2023-04-27T21:57:54.516Z,8.02
2023-04-27T21:59:35.842Z,8.24
2023-04-27T22:01:17.149Z,7.49
2023-04-27T22:02:58.591Z,6.75
2023-04-27T22:04:40.261Z,6.70
2023-04-27T22:06:21.645Z,6.53
2023-04-27T22:08:02.967Z,6.69
2023-04-27T22:09:44.289Z,6.77
2023-04-27T22:11:25.609Z,7.06
2023-04-27T22:13:17.768Z,7.23